sensor_id;sensor_type;location;lat;lon;timestamp;P1;durP1;ratioP1;P2;durP2;ratioP2
55706;SDS011;41608;45.384;20.394;2022-07-29T00:01:35;10.57;;;8.95;;
55706;SDS011;41608;45.384;20.394;2022-07-29T00:04:01;11.25;;;9.13;;
55706;SDS011;41608;45.384;20.394;2022-07-29T00:06:28;11.80;;;9.45;;
55706;SDS011;41608;45.384;20.394;2022-07-29T00:08:54;15.45;;;8.98;;
55706;SDS011;41608;45.384;20.394;2022-07-29T00:11:20;11.05;;;8.05;;
55706;SDS011;41608;45.384;20.394;2022-07-29T00:13:46;11.05;;;7.60;;
55706;SDS011;41608;45.384;20.394;2022-07-29T00:16:12;12.82;;;8.77;;
55706;SDS011;41608;45.384;20.394;2022-07-29T00:18:38;10.23;;;7.35;;
55706;SDS011;41608;45.384;20.394;2022-07-29T00:21:04;9.50;;;7.35;;
55706;SDS011;41608;45.384;20.394;2022-07-29T00:23:32;13.07;;;8.02;;
55706;SDS011;41608;45.384;20.394;2022-07-29T00:25:59;11.52;;;7.80;;
55706;SDS011;41608;45.384;20.394;2022-07-29T00:28:25;9.15;;;8.00;;
55706;SDS011;41608;45.384;20.394;2022-07-29T00:30:51;11.98;;;8.18;;
55706;SDS011;41608;45.384;20.394;2022-07-29T00:33:17;14.55;;;9.60;;
55706;SDS011;41608;45.384;20.394;2022-07-29T00:35:43;12.43;;;7.18;;
55706;SDS011;41608;45.384;20.394;2022-07-29T00:38:13;9.55;;;7.68;;
55706;SDS011;41608;45.384;20.394;2022-07-29T00:40:39;11.90;;;8.13;;
55706;SDS011;41608;45.384;20.394;2022-07-29T00:43:05;9.55;;;7.85;;
55706;SDS011;41608;45.384;20.394;2022-07-29T00:45:31;12.30;;;8.02;;
55706;SDS011;41608;45.384;20.394;2022-07-29T00:47:58;12.23;;;8.18;;
55706;SDS011;41608;45.384;20.394;2022-07-29T00:50:24;11.38;;;8.10;;
55706;SDS011;41608;45.384;20.394;2022-07-29T00:52:50;11.57;;;8.32;;
55706;SDS011;41608;45.384;20.394;2022-07-29T00:55:17;7.68;;;6.88;;
55706;SDS011;41608;45.384;20.394;2022-07-29T00:57:44;9.48;;;8.48;;
55706;SDS011;41608;45.384;20.394;2022-07-29T01:00:11;10.10;;;8.68;;
55706;SDS011;41608;45.384;20.394;2022-07-29T01:02:38;8.55;;;7.28;;
55706;SDS011;41608;45.384;20.394;2022-07-29T01:05:04;9.07;;;7.50;;
55706;SDS011;41608;45.384;20.394;2022-07-29T01:07:31;11.23;;;8.05;;
55706;SDS011;41608;45.384;20.394;2022-07-29T01:10:03;9.80;;;7.78;;
55706;SDS011;41608;45.384;20.394;2022-07-29T01:12:30;11.98;;;8.35;;
55706;SDS011;41608;45.384;20.394;2022-07-29T01:15:00;11.07;;;8.80;;
55706;SDS011;41608;45.384;20.394;2022-07-29T01:17:39;10.85;;;8.18;;
55706;SDS011;41608;45.384;20.394;2022-07-29T01:20:13;11.27;;;8.80;;
55706;SDS011;41608;45.384;20.394;2022-07-29T01:22:49;10.52;;;8.00;;
55706;SDS011;41608;45.384;20.394;2022-07-29T01:30:17;10.70;;;8.40;;
55706;SDS011;41608;45.384;20.394;2022-07-29T01:32:44;10.15;;;8.27;;
55706;SDS011;41608;45.384;20.394;2022-07-29T01:35:17;8.75;;;7.85;;
55706;SDS011;41608;45.384;20.394;2022-07-29T01:40:31;11.57;;;7.80;;
55706;SDS011;41608;45.384;20.394;2022-07-29T01:43:00;11.27;;;7.93;;
55706;SDS011;41608;45.384;20.394;2022-07-29T01:45:32;11.10;;;8.38;;
55706;SDS011;41608;45.384;20.394;2022-07-29T01:48:03;9.93;;;7.97;;
55706;SDS011;41608;45.384;20.394;2022-07-29T01:50:34;10.00;;;8.65;;
55706;SDS011;41608;45.384;20.394;2022-07-29T01:53:04;9.77;;;8.38;;
55706;SDS011;41608;45.384;20.394;2022-07-29T01:55:32;14.27;;;9.05;;
55706;SDS011;41608;45.384;20.394;2022-07-29T01:58:00;12.13;;;8.27;;
55706;SDS011;41608;45.384;20.394;2022-07-29T02:00:26;12.30;;;9.40;;
55706;SDS011;41608;45.384;20.394;2022-07-29T02:02:53;11.07;;;8.20;;
55706;SDS011;41608;45.384;20.394;2022-07-29T02:05:20;13.20;;;9.20;;
55706;SDS011;41608;45.384;20.394;2022-07-29T02:07:48;10.02;;;8.85;;
55706;SDS011;41608;45.384;20.394;2022-07-29T02:10:15;11.27;;;8.90;;
55706;SDS011;41608;45.384;20.394;2022-07-29T02:12:42;11.60;;;9.45;;
55706;SDS011;41608;45.384;20.394;2022-07-29T02:15:09;11.32;;;8.98;;
55706;SDS011;41608;45.384;20.394;2022-07-29T02:17:41;11.35;;;9.52;;
55706;SDS011;41608;45.384;20.394;2022-07-29T02:20:08;12.00;;;9.68;;
55706;SDS011;41608;45.384;20.394;2022-07-29T02:22:35;11.63;;;10.23;;
55706;SDS011;41608;45.384;20.394;2022-07-29T02:25:02;12.52;;;8.90;;
55706;SDS011;41608;45.384;20.394;2022-07-29T02:27:30;12.10;;;9.90;;
55706;SDS011;41608;45.384;20.394;2022-07-29T02:29:56;10.88;;;9.77;;
55706;SDS011;41608;45.384;20.394;2022-07-29T02:32:23;12.48;;;10.00;;
55706;SDS011;41608;45.384;20.394;2022-07-29T02:34:50;11.13;;;9.05;;
55706;SDS011;41608;45.384;20.394;2022-07-29T02:37:17;11.23;;;8.77;;
55706;SDS011;41608;45.384;20.394;2022-07-29T02:39:43;11.10;;;9.98;;
55706;SDS011;41608;45.384;20.394;2022-07-29T02:42:12;10.18;;;9.10;;
55706;SDS011;41608;45.384;20.394;2022-07-29T02:44:39;10.88;;;9.25;;
55706;SDS011;41608;45.384;20.394;2022-07-29T02:54:47;11.88;;;10.45;;
55706;SDS011;41608;45.384;20.394;2022-07-29T02:57:22;11.02;;;9.75;;
55706;SDS011;41608;45.384;20.394;2022-07-29T02:59:54;12.48;;;10.48;;
55706;SDS011;41608;45.384;20.394;2022-07-29T03:02:22;13.35;;;10.27;;
55706;SDS011;41608;45.384;20.394;2022-07-29T03:04:48;11.48;;;9.40;;
55706;SDS011;41608;45.384;20.394;2022-07-29T03:07:15;11.27;;;9.65;;
55706;SDS011;41608;45.384;20.394;2022-07-29T03:09:44;12.38;;;9.60;;
55706;SDS011;41608;45.384;20.394;2022-07-29T03:12:10;12.40;;;9.77;;
55706;SDS011;41608;45.384;20.394;2022-07-29T03:14:38;13.55;;;10.20;;
55706;SDS011;41608;45.384;20.394;2022-07-29T03:17:04;11.55;;;9.98;;
55706;SDS011;41608;45.384;20.394;2022-07-29T03:19:31;14.10;;;10.07;;
55706;SDS011;41608;45.384;20.394;2022-07-29T03:21:57;14.13;;;11.65;;
55706;SDS011;41608;45.384;20.394;2022-07-29T03:26:56;14.48;;;11.23;;
55706;SDS011;41608;45.384;20.394;2022-07-29T03:29:23;18.58;;;11.75;;
55706;SDS011;41608;45.384;20.394;2022-07-29T03:31:49;14.95;;;12.75;;
55706;SDS011;41608;45.384;20.394;2022-07-29T03:34:15;14.35;;;12.52;;
55706;SDS011;41608;45.384;20.394;2022-07-29T03:36:41;15.70;;;12.07;;
55706;SDS011;41608;45.384;20.394;2022-07-29T03:39:07;16.15;;;11.95;;
55706;SDS011;41608;45.384;20.394;2022-07-29T03:41:35;17.52;;;12.20;;
55706;SDS011;41608;45.384;20.394;2022-07-29T03:44:02;14.88;;;12.00;;
55706;SDS011;41608;45.384;20.394;2022-07-29T03:46:32;15.13;;;10.50;;
55706;SDS011;41608;45.384;20.394;2022-07-29T03:49:00;17.17;;;12.43;;
55706;SDS011;41608;45.384;20.394;2022-07-29T03:51:26;17.00;;;12.18;;
55706;SDS011;41608;45.384;20.394;2022-07-29T03:53:52;15.80;;;12.10;;
55706;SDS011;41608;45.384;20.394;2022-07-29T03:56:20;15.65;;;12.52;;
55706;SDS011;41608;45.384;20.394;2022-07-29T03:58:48;17.95;;;12.77;;
55706;SDS011;41608;45.384;20.394;2022-07-29T04:01:15;19.27;;;12.68;;
55706;SDS011;41608;45.384;20.394;2022-07-29T04:03:43;21.77;;;11.68;;
55706;SDS011;41608;45.384;20.394;2022-07-29T04:06:10;17.88;;;11.70;;
55706;SDS011;41608;45.384;20.394;2022-07-29T04:08:36;20.17;;;12.45;;
55706;SDS011;41608;45.384;20.394;2022-07-29T04:11:03;17.27;;;12.13;;
55706;SDS011;41608;45.384;20.394;2022-07-29T04:13:30;16.95;;;11.32;;
55706;SDS011;41608;45.384;20.394;2022-07-29T04:15:56;14.30;;;11.10;;
55706;SDS011;41608;45.384;20.394;2022-07-29T04:18:23;15.73;;;11.02;;
55706;SDS011;41608;45.384;20.394;2022-07-29T04:20:49;17.48;;;12.65;;
55706;SDS011;41608;45.384;20.394;2022-07-29T04:23:17;18.15;;;12.00;;
55706;SDS011;41608;45.384;20.394;2022-07-29T04:25:46;16.15;;;12.88;;
55706;SDS011;41608;45.384;20.394;2022-07-29T04:28:12;25.17;;;12.13;;
55706;SDS011;41608;45.384;20.394;2022-07-29T04:30:38;16.30;;;11.45;;
55706;SDS011;41608;45.384;20.394;2022-07-29T04:33:05;16.17;;;11.40;;
55706;SDS011;41608;45.384;20.394;2022-07-29T04:35:35;17.08;;;12.07;;
55706;SDS011;41608;45.384;20.394;2022-07-29T04:38:02;15.77;;;11.40;;
55706;SDS011;41608;45.384;20.394;2022-07-29T04:40:28;17.48;;;12.05;;
55706;SDS011;41608;45.384;20.394;2022-07-29T04:42:55;14.50;;;10.55;;
55706;SDS011;41608;45.384;20.394;2022-07-29T04:45:21;14.80;;;9.88;;
55706;SDS011;41608;45.384;20.394;2022-07-29T04:47:49;21.85;;;10.45;;
55706;SDS011;41608;45.384;20.394;2022-07-29T04:50:15;12.85;;;9.77;;
55706;SDS011;41608;45.384;20.394;2022-07-29T04:52:42;20.25;;;11.32;;
55706;SDS011;41608;45.384;20.394;2022-07-29T04:55:08;18.75;;;11.50;;
55706;SDS011;41608;45.384;20.394;2022-07-29T04:57:34;16.85;;;11.15;;
55706;SDS011;41608;45.384;20.394;2022-07-29T05:00:01;14.68;;;10.98;;
55706;SDS011;41608;45.384;20.394;2022-07-29T05:02:29;17.20;;;10.93;;
55706;SDS011;41608;45.384;20.394;2022-07-29T05:04:55;18.60;;;10.48;;
55706;SDS011;41608;45.384;20.394;2022-07-29T05:07:23;46.30;;;14.35;;
55706;SDS011;41608;45.384;20.394;2022-07-29T05:09:50;18.42;;;11.48;;
55706;SDS011;41608;45.384;20.394;2022-07-29T05:12:16;18.08;;;11.52;;
55706;SDS011;41608;45.384;20.394;2022-07-29T05:14:42;20.55;;;14.73;;
55706;SDS011;41608;45.384;20.394;2022-07-29T05:17:08;17.75;;;11.75;;
55706;SDS011;41608;45.384;20.394;2022-07-29T05:19:34;16.42;;;11.43;;
55706;SDS011;41608;45.384;20.394;2022-07-29T05:22:00;15.38;;;10.15;;
55706;SDS011;41608;45.384;20.394;2022-07-29T05:24:26;10.68;;;8.30;;
55706;SDS011;41608;45.384;20.394;2022-07-29T05:26:52;12.82;;;8.07;;
55706;SDS011;41608;45.384;20.394;2022-07-29T05:29:18;13.35;;;9.30;;
55706;SDS011;41608;45.384;20.394;2022-07-29T05:31:44;12.48;;;10.02;;
55706;SDS011;41608;45.384;20.394;2022-07-29T05:34:10;16.58;;;11.70;;
55706;SDS011;41608;45.384;20.394;2022-07-29T05:36:36;19.67;;;12.25;;
55706;SDS011;41608;45.384;20.394;2022-07-29T05:39:05;18.83;;;12.50;;
55706;SDS011;41608;45.384;20.394;2022-07-29T05:41:31;16.63;;;10.35;;
55706;SDS011;41608;45.384;20.394;2022-07-29T05:43:57;13.20;;;10.23;;
55706;SDS011;41608;45.384;20.394;2022-07-29T05:46:24;17.27;;;11.02;;
55706;SDS011;41608;45.384;20.394;2022-07-29T05:48:50;18.40;;;11.68;;
55706;SDS011;41608;45.384;20.394;2022-07-29T05:51:16;16.45;;;11.43;;
55706;SDS011;41608;45.384;20.394;2022-07-29T05:53:42;18.20;;;11.18;;
55706;SDS011;41608;45.384;20.394;2022-07-29T05:56:09;12.13;;;9.88;;
55706;SDS011;41608;45.384;20.394;2022-07-29T05:58:35;19.15;;;13.85;;
55706;SDS011;41608;45.384;20.394;2022-07-29T06:01:01;14.05;;;8.40;;
55706;SDS011;41608;45.384;20.394;2022-07-29T06:03:28;16.63;;;7.65;;
55706;SDS011;41608;45.384;20.394;2022-07-29T06:05:55;14.88;;;9.60;;
55706;SDS011;41608;45.384;20.394;2022-07-29T06:08:21;10.98;;;6.75;;
55706;SDS011;41608;45.384;20.394;2022-07-29T06:10:47;8.18;;;5.45;;
55706;SDS011;41608;45.384;20.394;2022-07-29T06:13:13;10.63;;;6.80;;
55706;SDS011;41608;45.384;20.394;2022-07-29T06:15:41;15.02;;;7.97;;
55706;SDS011;41608;45.384;20.394;2022-07-29T06:18:07;14.48;;;9.32;;
55706;SDS011;41608;45.384;20.394;2022-07-29T06:20:34;11.60;;;7.07;;
55706;SDS011;41608;45.384;20.394;2022-07-29T06:23:01;16.00;;;9.30;;
55706;SDS011;41608;45.384;20.394;2022-07-29T06:25:29;9.18;;;5.85;;
55706;SDS011;41608;45.384;20.394;2022-07-29T06:27:56;12.70;;;7.80;;
55706;SDS011;41608;45.384;20.394;2022-07-29T06:30:22;9.77;;;6.15;;
55706;SDS011;41608;45.384;20.394;2022-07-29T06:32:48;7.43;;;5.20;;
55706;SDS011;41608;45.384;20.394;2022-07-29T06:35:14;6.82;;;4.43;;
55706;SDS011;41608;45.384;20.394;2022-07-29T06:37:40;11.35;;;5.28;;
55706;SDS011;41608;45.384;20.394;2022-07-29T06:40:06;10.70;;;5.00;;
55706;SDS011;41608;45.384;20.394;2022-07-29T06:43:02;8.30;;;5.53;;
55706;SDS011;41608;45.384;20.394;2022-07-29T06:45:28;7.90;;;5.25;;
55706;SDS011;41608;45.384;20.394;2022-07-29T06:47:54;9.63;;;5.32;;
55706;SDS011;41608;45.384;20.394;2022-07-29T06:50:20;9.90;;;5.40;;
55706;SDS011;41608;45.384;20.394;2022-07-29T06:52:46;7.60;;;4.15;;
55706;SDS011;41608;45.384;20.394;2022-07-29T06:55:15;8.93;;;4.25;;
55706;SDS011;41608;45.384;20.394;2022-07-29T06:57:41;5.63;;;4.00;;
55706;SDS011;41608;45.384;20.394;2022-07-29T07:00:07;9.32;;;4.75;;
55706;SDS011;41608;45.384;20.394;2022-07-29T07:02:33;12.85;;;4.78;;
55706;SDS011;41608;45.384;20.394;2022-07-29T07:05:00;7.57;;;3.97;;
55706;SDS011;41608;45.384;20.394;2022-07-29T07:07:26;8.15;;;5.25;;
55706;SDS011;41608;45.384;20.394;2022-07-29T07:09:52;5.32;;;4.05;;
55706;SDS011;41608;45.384;20.394;2022-07-29T07:12:20;8.60;;;5.50;;
55706;SDS011;41608;45.384;20.394;2022-07-29T07:14:46;9.13;;;5.13;;
55706;SDS011;41608;45.384;20.394;2022-07-29T07:17:13;10.07;;;5.28;;
55706;SDS011;41608;45.384;20.394;2022-07-29T07:19:39;7.68;;;5.53;;
55706;SDS011;41608;45.384;20.394;2022-07-29T07:22:05;12.32;;;6.53;;
55706;SDS011;41608;45.384;20.394;2022-07-29T07:24:31;7.38;;;4.82;;
55706;SDS011;41608;45.384;20.394;2022-07-29T07:26:57;8.00;;;5.38;;
55706;SDS011;41608;45.384;20.394;2022-07-29T07:29:23;9.30;;;5.38;;
55706;SDS011;41608;45.384;20.394;2022-07-29T07:31:49;11.07;;;6.68;;
55706;SDS011;41608;45.384;20.394;2022-07-29T07:34:15;7.60;;;5.50;;
55706;SDS011;41608;45.384;20.394;2022-07-29T07:36:42;8.88;;;5.88;;
55706;SDS011;41608;45.384;20.394;2022-07-29T07:39:08;9.38;;;6.35;;
55706;SDS011;41608;45.384;20.394;2022-07-29T07:41:34;12.95;;;6.45;;
55706;SDS011;41608;45.384;20.394;2022-07-29T07:44:05;8.07;;;5.10;;
55706;SDS011;41608;45.384;20.394;2022-07-29T07:46:31;13.85;;;6.32;;
55706;SDS011;41608;45.384;20.394;2022-07-29T07:48:57;17.88;;;6.32;;
55706;SDS011;41608;45.384;20.394;2022-07-29T07:51:23;8.95;;;5.82;;
55706;SDS011;41608;45.384;20.394;2022-07-29T07:53:49;8.40;;;4.30;;
55706;SDS011;41608;45.384;20.394;2022-07-29T07:56:16;8.95;;;5.15;;
55706;SDS011;41608;45.384;20.394;2022-07-29T07:58:42;6.55;;;4.90;;
55706;SDS011;41608;45.384;20.394;2022-07-29T08:01:10;6.78;;;5.30;;
55706;SDS011;41608;45.384;20.394;2022-07-29T08:03:39;6.65;;;4.93;;
55706;SDS011;41608;45.384;20.394;2022-07-29T08:06:07;8.25;;;4.60;;
55706;SDS011;41608;45.384;20.394;2022-07-29T08:08:33;7.05;;;5.75;;
55706;SDS011;41608;45.384;20.394;2022-07-29T08:11:00;13.02;;;6.22;;
55706;SDS011;41608;45.384;20.394;2022-07-29T08:13:27;6.60;;;5.63;;
55706;SDS011;41608;45.384;20.394;2022-07-29T08:15:56;10.10;;;6.05;;
55706;SDS011;41608;45.384;20.394;2022-07-29T08:18:26;8.00;;;6.00;;
55706;SDS011;41608;45.384;20.394;2022-07-29T08:20:52;8.52;;;5.85;;
55706;SDS011;41608;45.384;20.394;2022-07-29T08:23:18;9.02;;;5.70;;
55706;SDS011;41608;45.384;20.394;2022-07-29T08:25:48;8.77;;;5.13;;
55706;SDS011;41608;45.384;20.394;2022-07-29T08:28:14;6.55;;;5.47;;
55706;SDS011;41608;45.384;20.394;2022-07-29T08:30:40;7.40;;;5.90;;
55706;SDS011;41608;45.384;20.394;2022-07-29T08:33:07;8.32;;;5.95;;
55706;SDS011;41608;45.384;20.394;2022-07-29T08:35:33;9.40;;;5.60;;
55706;SDS011;41608;45.384;20.394;2022-07-29T08:37:59;8.02;;;5.10;;
55706;SDS011;41608;45.384;20.394;2022-07-29T08:40:25;6.63;;;5.90;;
55706;SDS011;41608;45.384;20.394;2022-07-29T08:42:51;10.55;;;6.13;;
55706;SDS011;41608;45.384;20.394;2022-07-29T08:45:17;8.38;;;5.40;;
55706;SDS011;41608;45.384;20.394;2022-07-29T08:47:44;7.30;;;6.03;;
55706;SDS011;41608;45.384;20.394;2022-07-29T08:50:10;8.95;;;5.55;;
55706;SDS011;41608;45.384;20.394;2022-07-29T08:52:38;7.90;;;5.63;;
55706;SDS011;41608;45.384;20.394;2022-07-29T08:55:05;12.07;;;6.00;;
55706;SDS011;41608;45.384;20.394;2022-07-29T08:57:32;11.23;;;5.90;;
55706;SDS011;41608;45.384;20.394;2022-07-29T09:00:00;7.32;;;6.30;;
55706;SDS011;41608;45.384;20.394;2022-07-29T09:02:27;15.15;;;6.68;;
55706;SDS011;41608;45.384;20.394;2022-07-29T09:04:54;8.73;;;6.28;;
55706;SDS011;41608;45.384;20.394;2022-07-29T09:07:22;10.30;;;6.70;;
55706;SDS011;41608;45.384;20.394;2022-07-29T09:09:48;7.93;;;6.45;;
55706;SDS011;41608;45.384;20.394;2022-07-29T09:12:14;8.38;;;6.78;;
55706;SDS011;41608;45.384;20.394;2022-07-29T09:14:40;8.20;;;6.50;;
55706;SDS011;41608;45.384;20.394;2022-07-29T09:17:09;9.18;;;6.72;;
55706;SDS011;41608;45.384;20.394;2022-07-29T09:19:36;9.95;;;6.70;;
55706;SDS011;41608;45.384;20.394;2022-07-29T09:22:04;9.18;;;6.05;;
55706;SDS011;41608;45.384;20.394;2022-07-29T09:26:59;14.27;;;6.30;;
55706;SDS011;41608;45.384;20.394;2022-07-29T09:29:25;12.90;;;6.57;;
55706;SDS011;41608;45.384;20.394;2022-07-29T09:31:53;11.60;;;6.47;;
55706;SDS011;41608;45.384;20.394;2022-07-29T09:34:23;10.73;;;7.03;;
55706;SDS011;41608;45.384;20.394;2022-07-29T09:36:49;8.98;;;6.95;;
55706;SDS011;41608;45.384;20.394;2022-07-29T09:39:26;8.93;;;7.00;;
55706;SDS011;41608;45.384;20.394;2022-07-29T09:41:54;10.05;;;6.60;;
55706;SDS011;41608;45.384;20.394;2022-07-29T09:44:21;7.82;;;6.70;;
55706;SDS011;41608;45.384;20.394;2022-07-29T09:46:57;11.73;;;6.38;;
55706;SDS011;41608;45.384;20.394;2022-07-29T09:49:24;9.20;;;7.03;;
55706;SDS011;41608;45.384;20.394;2022-07-29T09:52:03;7.10;;;6.10;;
55706;SDS011;41608;45.384;20.394;2022-07-29T09:54:29;8.25;;;6.90;;
55706;SDS011;41608;45.384;20.394;2022-07-29T09:57:01;9.35;;;7.43;;
55706;SDS011;41608;45.384;20.394;2022-07-29T09:59:27;10.32;;;6.55;;
55706;SDS011;41608;45.384;20.394;2022-07-29T10:01:54;9.07;;;7.65;;
55706;SDS011;41608;45.384;20.394;2022-07-29T10:04:20;9.13;;;6.72;;
55706;SDS011;41608;45.384;20.394;2022-07-29T10:06:59;11.18;;;7.10;;
55706;SDS011;41608;45.384;20.394;2022-07-29T10:09:25;13.32;;;7.43;;
55706;SDS011;41608;45.384;20.394;2022-07-29T10:12:04;9.25;;;7.60;;
55706;SDS011;41608;45.384;20.394;2022-07-29T10:14:31;11.38;;;7.85;;
55706;SDS011;41608;45.384;20.394;2022-07-29T10:17:01;8.77;;;6.90;;
55706;SDS011;41608;45.384;20.394;2022-07-29T10:19:28;9.73;;;7.85;;
55706;SDS011;41608;45.384;20.394;2022-07-29T10:21:55;13.30;;;8.38;;
55706;SDS011;41608;45.384;20.394;2022-07-29T10:24:25;9.52;;;7.57;;
55706;SDS011;41608;45.384;20.394;2022-07-29T10:26:51;8.02;;;7.22;;
55706;SDS011;41608;45.384;20.394;2022-07-29T10:29:18;12.88;;;8.30;;
55706;SDS011;41608;45.384;20.394;2022-07-29T10:35:18;9.70;;;7.80;;
55706;SDS011;41608;45.384;20.394;2022-07-29T10:37:28;11.70;;;8.00;;
55706;SDS011;41608;45.384;20.394;2022-07-29T10:42:56;9.90;;;8.68;;
55706;SDS011;41608;45.384;20.394;2022-07-29T10:45:28;10.73;;;8.57;;
55706;SDS011;41608;45.384;20.394;2022-07-29T10:48:04;13.73;;;8.32;;
55706;SDS011;41608;45.384;20.394;2022-07-29T10:50:53;8.95;;;7.40;;
55706;SDS011;41608;45.384;20.394;2022-07-29T10:53:20;9.38;;;8.00;;
55706;SDS011;41608;45.384;20.394;2022-07-29T10:55:47;11.88;;;7.15;;
55706;SDS011;41608;45.384;20.394;2022-07-29T10:58:16;10.10;;;7.53;;
55706;SDS011;41608;45.384;20.394;2022-07-29T11:00:43;8.23;;;7.28;;
55706;SDS011;41608;45.384;20.394;2022-07-29T11:03:10;11.52;;;7.40;;
55706;SDS011;41608;45.384;20.394;2022-07-29T11:05:55;9.07;;;7.97;;
55706;SDS011;41608;45.384;20.394;2022-07-29T11:08:22;9.32;;;7.55;;
55706;SDS011;41608;45.384;20.394;2022-07-29T11:13:45;14.00;;;9.20;;
55706;SDS011;41608;45.384;20.394;2022-07-29T11:16:11;11.93;;;9.98;;
55706;SDS011;41608;45.384;20.394;2022-07-29T11:21:37;11.07;;;8.75;;
55706;SDS011;41608;45.384;20.394;2022-07-29T11:24:13;9.85;;;8.93;;
55706;SDS011;41608;45.384;20.394;2022-07-29T11:26:40;9.27;;;8.27;;
55706;SDS011;41608;45.384;20.394;2022-07-29T11:29:20;11.10;;;7.80;;
55706;SDS011;41608;45.384;20.394;2022-07-29T11:31:50;12.15;;;8.50;;
55706;SDS011;41608;45.384;20.394;2022-07-29T11:34:29;12.27;;;9.45;;
55706;SDS011;41608;45.384;20.394;2022-07-29T11:39:47;13.07;;;8.90;;
55706;SDS011;41608;45.384;20.394;2022-07-29T11:47:31;13.90;;;9.73;;
55706;SDS011;41608;45.384;20.394;2022-07-29T11:49:58;14.35;;;9.48;;
55706;SDS011;41608;45.384;20.394;2022-07-29T11:55:02;10.30;;;7.68;;
55706;SDS011;41608;45.384;20.394;2022-07-29T11:57:29;14.25;;;8.45;;
55706;SDS011;41608;45.384;20.394;2022-07-29T11:59:55;12.05;;;8.77;;
55706;SDS011;41608;45.384;20.394;2022-07-29T12:02:23;11.30;;;8.27;;
55706;SDS011;41608;45.384;20.394;2022-07-29T12:07:15;10.32;;;9.07;;
55706;SDS011;41608;45.384;20.394;2022-07-29T12:09:52;11.15;;;8.60;;
55706;SDS011;41608;45.384;20.394;2022-07-29T12:12:19;10.55;;;7.65;;
55706;SDS011;41608;45.384;20.394;2022-07-29T12:14:45;10.32;;;8.98;;
55706;SDS011;41608;45.384;20.394;2022-07-29T12:19:58;9.80;;;8.80;;
55706;SDS011;41608;45.384;20.394;2022-07-29T12:22:28;19.88;;;10.07;;
55706;SDS011;41608;45.384;20.394;2022-07-29T12:24:54;15.68;;;9.38;;
55706;SDS011;41608;45.384;20.394;2022-07-29T12:27:23;10.43;;;9.32;;
55706;SDS011;41608;45.384;20.394;2022-07-29T12:29:56;18.02;;;9.90;;
55706;SDS011;41608;45.384;20.394;2022-07-29T12:32:22;10.63;;;9.55;;
55706;SDS011;41608;45.384;20.394;2022-07-29T12:34:49;11.35;;;9.38;;
55706;SDS011;41608;45.384;20.394;2022-07-29T12:37:15;10.15;;;8.63;;
55706;SDS011;41608;45.384;20.394;2022-07-29T12:39:42;10.25;;;9.18;;
55706;SDS011;41608;45.384;20.394;2022-07-29T12:42:12;12.07;;;9.27;;
55706;SDS011;41608;45.384;20.394;2022-07-29T12:44:45;14.95;;;10.45;;
55706;SDS011;41608;45.384;20.394;2022-07-29T12:47:13;10.68;;;9.57;;
55706;SDS011;41608;45.384;20.394;2022-07-29T12:49:39;10.85;;;9.45;;
55706;SDS011;41608;45.384;20.394;2022-07-29T12:54:50;9.88;;;8.45;;
55706;SDS011;41608;45.384;20.394;2022-07-29T12:57:17;11.15;;;8.50;;
55706;SDS011;41608;45.384;20.394;2022-07-29T12:59:43;13.80;;;8.52;;
55706;SDS011;41608;45.384;20.394;2022-07-29T13:02:20;10.52;;;8.73;;
55706;SDS011;41608;45.384;20.394;2022-07-29T13:04:56;12.40;;;8.80;;
55706;SDS011;41608;45.384;20.394;2022-07-29T13:07:26;10.00;;;7.35;;
55706;SDS011;41608;45.384;20.394;2022-07-29T13:09:53;11.73;;;7.68;;
55706;SDS011;41608;45.384;20.394;2022-07-29T13:12:20;10.20;;;8.32;;
55706;SDS011;41608;45.384;20.394;2022-07-29T13:14:47;10.50;;;7.63;;
55706;SDS011;41608;45.384;20.394;2022-07-29T13:22:10;13.82;;;7.38;;
55706;SDS011;41608;45.384;20.394;2022-07-29T13:27:13;9.93;;;7.50;;
55706;SDS011;41608;45.384;20.394;2022-07-29T13:29:39;10.32;;;7.28;;
55706;SDS011;41608;45.384;20.394;2022-07-29T13:32:05;10.40;;;8.25;;
55706;SDS011;41608;45.384;20.394;2022-07-29T13:34:32;10.32;;;7.28;;
55706;SDS011;41608;45.384;20.394;2022-07-29T13:37:00;11.80;;;8.13;;
55706;SDS011;41608;45.384;20.394;2022-07-29T13:39:27;11.32;;;7.60;;
55706;SDS011;41608;45.384;20.394;2022-07-29T13:41:53;10.52;;;7.78;;
55706;SDS011;41608;45.384;20.394;2022-07-29T13:44:23;12.63;;;7.68;;
55706;SDS011;41608;45.384;20.394;2022-07-29T13:46:49;8.95;;;7.57;;
55706;SDS011;41608;45.384;20.394;2022-07-29T13:49:15;9.50;;;7.70;;
55706;SDS011;41608;45.384;20.394;2022-07-29T13:51:42;8.20;;;7.40;;
55706;SDS011;41608;45.384;20.394;2022-07-29T13:54:08;8.98;;;7.68;;
55706;SDS011;41608;45.384;20.394;2022-07-29T13:56:36;10.07;;;7.40;;
55706;SDS011;41608;45.384;20.394;2022-07-29T13:59:02;10.10;;;8.85;;
55706;SDS011;41608;45.384;20.394;2022-07-29T14:01:28;8.90;;;6.75;;
55706;SDS011;41608;45.384;20.394;2022-07-29T14:03:55;9.70;;;6.88;;
55706;SDS011;41608;45.384;20.394;2022-07-29T14:06:21;8.25;;;6.80;;
55706;SDS011;41608;45.384;20.394;2022-07-29T14:08:48;9.40;;;8.30;;
55706;SDS011;41608;45.384;20.394;2022-07-29T14:11:14;9.48;;;8.48;;
55706;SDS011;41608;45.384;20.394;2022-07-29T14:13:40;10.23;;;7.38;;
55706;SDS011;41608;45.384;20.394;2022-07-29T14:16:06;10.05;;;7.22;;
55706;SDS011;41608;45.384;20.394;2022-07-29T14:18:32;10.05;;;7.57;;
55706;SDS011;41608;45.384;20.394;2022-07-29T14:20:58;8.00;;;7.13;;
55706;SDS011;41608;45.384;20.394;2022-07-29T14:23:24;10.00;;;7.43;;
55706;SDS011;41608;45.384;20.394;2022-07-29T14:25:51;8.38;;;7.47;;
55706;SDS011;41608;45.384;20.394;2022-07-29T14:28:17;11.32;;;7.60;;
55706;SDS011;41608;45.384;20.394;2022-07-29T14:30:43;9.05;;;8.00;;
55706;SDS011;41608;45.384;20.394;2022-07-29T14:33:09;9.70;;;8.05;;
55706;SDS011;41608;45.384;20.394;2022-07-29T14:35:37;7.20;;;6.50;;
55706;SDS011;41608;45.384;20.394;2022-07-29T14:38:04;8.27;;;7.40;;
55706;SDS011;41608;45.384;20.394;2022-07-29T14:40:30;10.25;;;8.27;;
55706;SDS011;41608;45.384;20.394;2022-07-29T14:42:56;11.70;;;7.93;;
55706;SDS011;41608;45.384;20.394;2022-07-29T14:45:22;11.20;;;8.45;;
55706;SDS011;41608;45.384;20.394;2022-07-29T14:47:48;9.30;;;7.50;;
55706;SDS011;41608;45.384;20.394;2022-07-29T14:50:15;7.70;;;6.82;;
55706;SDS011;41608;45.384;20.394;2022-07-29T14:52:43;8.70;;;7.80;;
55706;SDS011;41608;45.384;20.394;2022-07-29T14:55:09;8.88;;;7.72;;
55706;SDS011;41608;45.384;20.394;2022-07-29T14:57:35;8.85;;;7.85;;
55706;SDS011;41608;45.384;20.394;2022-07-29T15:00:02;9.48;;;7.85;;
55706;SDS011;41608;45.384;20.394;2022-07-29T15:02:28;12.13;;;7.70;;
55706;SDS011;41608;45.384;20.394;2022-07-29T15:04:54;9.25;;;7.30;;
55706;SDS011;41608;45.384;20.394;2022-07-29T15:07:21;9.07;;;8.18;;
55706;SDS011;41608;45.384;20.394;2022-07-29T15:09:47;10.52;;;8.25;;
55706;SDS011;41608;45.384;20.394;2022-07-29T15:12:13;9.70;;;7.78;;
55706;SDS011;41608;45.384;20.394;2022-07-29T15:14:40;17.73;;;9.68;;
55706;SDS011;41608;45.384;20.394;2022-07-29T15:17:06;11.13;;;8.07;;
55706;SDS011;41608;45.384;20.394;2022-07-29T15:19:32;8.20;;;7.40;;
55706;SDS011;41608;45.384;20.394;2022-07-29T15:21:58;16.05;;;10.20;;
55706;SDS011;41608;45.384;20.394;2022-07-29T15:24:25;11.30;;;8.23;;